TimeCST,TemperatureF,Dew PointF,Humidity,Sea Level PressureIn,VisibilityMPH,Wind Direction,Wind SpeedMPH,Gust SpeedMPH,PrecipitationIn,Events,Conditions,WindDirDegrees,DateUTC
12:52 AM,17.1,14.0,88,30.20,10.0,Calm,Calm,-,N/A,,Clear,0,2012-12-22 06:52:00
1:52 AM,19.9,16.0,85,30.18,10.0,Calm,Calm,-,N/A,,Clear,0,2012-12-22 07:52:00
2:52 AM,19.9,16.0,85,30.16,10.0,Calm,Calm,-,N/A,,Clear,0,2012-12-22 08:52:00
3:52 AM,18.0,14.0,84,30.13,10.0,Calm,Calm,-,N/A,,Clear,0,2012-12-22 09:52:00
4:52 AM,17.1,12.9,84,30.12,10.0,Calm,Calm,-,N/A,,Clear,0,2012-12-22 10:52:00
5:52 AM,15.1,12.9,91,30.10,10.0,Calm,Calm,-,N/A,,Clear,0,2012-12-22 11:52:00
6:52 AM,14.0,10.9,88,30.10,10.0,Calm,Calm,-,N/A,,Clear,0,2012-12-22 12:52:00
7:52 AM,12.9,10.9,92,30.09,8.0,Calm,Calm,-,N/A,,Clear,0,2012-12-22 13:52:00
8:52 AM,19.9,17.1,89,30.09,10.0,Calm,Calm,-,N/A,,Clear,0,2012-12-22 14:52:00
9:52 AM,25.0,21.0,85,30.09,10.0,Calm,Calm,-,N/A,,Clear,0,2012-12-22 15:52:00
10:52 AM,33.1,23.0,66,30.06,10.0,Calm,Calm,-,N/A,,Clear,0,2012-12-22 16:52:00
11:52 AM,42.1,21.0,43,30.03,10.0,SW,9.2,-,N/A,,Clear,230,2012-12-22 17:52:00
12:52 PM,44.1,23.0,43,29.99,10.0,SSW,6.9,-,N/A,,Clear,200,2012-12-22 18:52:00
1:52 PM,46.0,21.0,37,29.96,10.0,South,5.8,-,N/A,,Clear,190,2012-12-22 19:52:00
2:52 PM,46.9,25.0,42,29.96,10.0,SSW,8.1,-,N/A,,Clear,210,2012-12-22 20:52:00
3:52 PM,46.0,26.1,46,29.96,10.0,SW,6.9,-,N/A,,Clear,220,2012-12-22 21:52:00
4:52 PM,44.1,23.0,43,29.97,10.0,Calm,Calm,-,N/A,,Clear,0,2012-12-22 22:52:00
5:52 PM,36.0,26.1,67,29.98,10.0,West,3.5,-,N/A,,Clear,260,2012-12-22 23:52:00
6:52 PM,37.0,26.1,65,30.00,10.0,Calm,Calm,-,N/A,,Clear,0,2012-12-23 00:52:00
7:52 PM,36.0,27.0,70,30.01,10.0,Calm,Calm,-,N/A,,Clear,0,2012-12-23 01:52:00
8:52 PM,30.9,25.0,79,30.00,10.0,Calm,Calm,-,N/A,,Clear,0,2012-12-23 02:52:00
9:52 PM,33.1,26.1,75,30.00,10.0,North,4.6,-,N/A,,Clear,360,2012-12-23 03:52:00
10:52 PM,30.9,24.1,76,30.00,10.0,NNE,4.6,-,N/A,,Clear,20,2012-12-23 04:52:00
11:52 PM,30.0,24.1,79,30.00,10.0,Calm,Calm,-,N/A,,Clear,0,2012-12-23 05:52:00